Time;durP1;ratioP1;P1;durP2;ratioP2;P2;SDS_P1;SDS_P2;PMS_P1;PMS_P2;Temp;Humidity;BMP_temperature;BMP_pressure;BME280_temperature;BME280_humidity;BME280_pressure;Samples;Min_cycle;Max_cycle;Signal;HPM_P1;HPM_P2
2021/03/26 00:00:36;;;;;;;26.57;23.83;;;;;;;10.12;73.05;100891.41;5024128;28;20676;-73
2021/03/26 00:03:05;;;;;;;26.27;23.83;;;;;;;10.11;73.12;100895.75;5022925;28;20234;-73
2021/03/26 00:05:33;;;;;;;27.23;24.40;;;;;;;10.10;73.05;100898.38;5024460;28;20211;-73
2021/03/26 00:07:59;;;;;;;27.37;24.70;;;;;;;10.05;72.88;100900.16;5024077;28;20206;-73
2021/03/26 00:10:25;;;;;;;28.50;25.60;;;;;;;10.03;72.83;100894.97;5024636;28;20206;-74
2021/03/26 00:12:52;;;;;;;26.53;24.03;;;;;;;10.02;72.52;100900.19;5022917;28;20224;-73
2021/03/26 00:15:19;;;;;;;29.27;26.33;;;;;;;9.96;73.12;100895.03;5023126;28;20211;-74
2021/03/26 00:17:45;;;;;;;32.87;26.80;;;;;;;9.88;73.45;100889.88;5023933;28;20211;-74
2021/03/26 00:20:12;;;;;;;28.37;25.10;;;;;;;9.87;72.99;100891.63;5023306;28;20668;-72
2021/03/26 00:22:38;;;;;;;27.70;25.13;;;;;;;9.82;72.67;100895.16;5022429;28;20219;-74
2021/03/26 00:25:07;;;;;;;29.63;26.63;;;;;;;9.83;72.66;100894.25;5023760;28;21014;-74
2021/03/26 00:27:33;;;;;;;28.10;25.17;;;;;;;9.83;72.34;100895.16;5023710;28;20260;-74
2021/03/26 00:29:59;;;;;;;30.13;26.83;;;;;;;9.79;73.08;100893.44;5022998;28;20203;-72
2021/03/26 00:32:25;;;;;;;31.77;26.73;;;;;;;9.79;72.60;100885.63;5022688;28;20629;-75
2021/03/26 00:34:54;;;;;;;30.33;26.67;;;;;;;9.79;72.67;100885.63;5022510;28;20226;-73
2021/03/26 00:37:20;;;;;;;31.53;28.17;;;;;;;9.74;72.50;100893.47;5021985;28;20676;-73
2021/03/26 00:39:47;;;;;;;29.73;26.57;;;;;;;9.72;72.47;100887.41;5024050;28;20233;-75
2021/03/26 00:42:13;;;;;;;29.60;26.67;;;;;;;9.64;73.02;100884.00;5023529;28;20212;-75
2021/03/26 00:44:39;;;;;;;32.80;27.37;;;;;;;9.66;72.74;100877.03;5022083;28;20878;-72
2021/03/26 00:47:05;;;;;;;31.13;27.43;;;;;;;9.61;72.51;100884.00;5024529;28;20684;-75
2021/03/26 00:49:31;;;;;;;32.13;27.57;;;;;;;9.59;72.44;100885.75;5023348;28;20237;-74
2021/03/26 00:51:57;;;;;;;33.37;29.07;;;;;;;9.58;72.79;100888.41;5023385;28;20231;-72
2021/03/26 00:54:23;;;;;;;35.83;27.93;;;;;;;9.51;73.21;100888.44;5022908;28;20969;-74
2021/03/26 00:56:50;;;;;;;33.73;28.03;;;;;;;9.50;72.33;100891.91;5023808;28;20541;-72
2021/03/26 00:59:16;;;;;;;34.30;28.17;;;;;;;9.50;72.82;100891.91;5022887;28;20210;-73
2021/03/26 01:01:41;;;;;;;33.70;27.80;;;;;;;9.44;73.17;100885.91;5022804;28;20214;-74
2021/03/26 01:04:07;;;;;;;36.40;29.30;;;;;;;9.31;72.83;100885.09;5022091;28;20804;-75
2021/03/26 01:06:33;;;;;;;35.97;27.97;;;;;;;9.33;72.97;100885.94;5023685;28;20210;-74
2021/03/26 01:09:00;;;;;;;31.43;27.93;;;;;;;9.33;72.97;100875.53;5023007;28;20209;-75
2021/03/26 01:11:28;;;;;;;30.30;27.07;;;;;;;9.28;72.38;100875.56;5023297;28;20206;-75
2021/03/26 01:13:56;;;;;;;29.90;26.23;;;;;;;9.26;73.06;100874.72;5021682;28;20221;-75
2021/03/26 01:16:23;;;;;;;32.33;27.67;;;;;;;9.22;72.86;100882.56;5022425;28;20929;-74
2021/03/26 01:18:49;;;;;;;32.00;27.37;;;;;;;9.20;73.81;100881.72;5022526;28;20201;-74
2021/03/26 01:21:20;;;;;;;29.87;26.63;;;;;;;9.18;73.37;100886.03;5023122;28;20217;-72
2021/03/26 01:23:46;;;;;;;33.60;28.10;;;;;;;9.05;74.46;100867.91;5021221;28;20241;-74
2021/03/26 01:26:12;;;;;;;29.60;26.53;;;;;;;9.05;74.68;100885.25;5023689;28;20205;-75
2021/03/26 01:28:38;;;;;;;30.73;26.40;;;;;;;9.08;73.94;100872.25;5022312;28;20206;-75
2021/03/26 01:31:05;;;;;;;29.10;26.07;;;;;;;9.07;73.94;100873.97;5022724;28;20202;-74
2021/03/26 01:33:32;;;;;;;30.27;27.03;;;;;;;9.07;74.67;100870.50;5022530;28;20712;-74
2021/03/26 01:35:59;;;;;;;32.83;26.90;;;;;;;9.10;73.91;100873.09;5023138;28;20210;-74
2021/03/26 01:38:26;;;;;;;29.50;26.40;;;;;;;9.12;73.78;100873.94;5023069;28;20202;-75
2021/03/26 01:40:55;;;;;;;30.63;27.43;;;;;;;9.09;74.80;100864.41;5022449;28;20222;-75
2021/03/26 01:43:25;;;;;;;30.47;27.20;;;;;;;9.14;74.41;100865.25;5020675;28;20636;-73
2021/03/26 01:45:52;;;;;;;31.07;26.20;;;;;;;9.13;74.40;100860.91;5022450;28;20254;-74
2021/03/26 01:48:25;;;;;;;30.10;26.90;;;;;;;9.20;74.33;100860.88;5022704;28;20198;-74
2021/03/26 01:50:52;;;;;;;28.80;25.50;;;;;;;9.19;74.90;100860.00;5022301;28;20261;-74
2021/03/26 01:53:19;;;;;;;29.93;25.33;;;;;;;9.20;74.62;100861.75;5022251;28;20222;-74
2021/03/26 01:55:47;;;;;;;32.50;26.93;;;;;;;9.22;74.50;100854.78;5022161;28;20194;-75
2021/03/26 01:58:15;;;;;;;31.57;26.33;;;;;;;9.23;75.01;100864.31;5022416;28;20269;-73
2021/03/26 02:00:44;;;;;;;27.20;24.50;;;;;;;9.26;75.07;100858.22;5022074;28;20213;-72
2021/03/26 02:03:18;;;;;;;31.13;27.93;;;;;;;9.25;75.08;100859.09;5022275;28;20233;-74
2021/03/26 02:05:46;;;;;;;30.30;27.13;;;;;;;9.28;74.72;100853.88;5022772;28;20194;-74
2021/03/26 02:08:13;;;;;;;29.67;26.53;;;;;;;9.31;74.60;100856.44;5021880;28;20627;-73
2021/03/26 02:10:40;;;;;;;28.17;25.20;;;;;;;9.29;74.78;100852.97;5021895;28;21196;-75
2021/03/26 02:13:08;;;;;;;28.73;25.83;;;;;;;9.31;74.71;100857.31;5021698;28;20609;-74
2021/03/26 02:15:40;;;;;;;29.13;26.03;;;;;;;9.32;74.88;100858.19;5022036;28;20217;-74
2021/03/26 02:18:08;;;;;;;30.03;25.37;;;;;;;9.31;75.18;100853.84;5022134;28;20217;-75
2021/03/26 02:20:45;;;;;;;30.70;27.33;;;;;;;9.33;75.24;100846.88;5023000;28;20909;-74
2021/03/26 02:23:13;;;;;;;29.23;25.23;;;;;;;9.32;74.85;100847.78;5021647;28;20236;-73
2021/03/26 02:25:41;;;;;;;31.97;27.23;;;;;;;9.31;74.93;100849.47;5022700;28;20200;-73
2021/03/26 02:28:07;;;;;;;29.43;26.30;;;;;;;9.34;74.83;100853.84;5021548;28;20210;-74
2021/03/26 02:30:40;;;;;;;30.27;25.70;;;;;;;9.31;75.40;100851.22;5022881;28;20702;-74
2021/03/26 02:33:07;;;;;;;27.60;24.83;;;;;;;9.32;75.33;100847.78;5020450;28;20317;-73
2021/03/26 02:35:35;;;;;;;33.07;27.60;;;;;;;9.29;74.65;100847.78;5022717;28;20219;-74
2021/03/26 02:38:06;;;;;;;31.03;26.37;;;;;;;9.24;75.32;100858.25;5023957;28;20198;-74
2021/03/26 02:40:38;;;;;;;33.67;26.37;;;;;;;9.25;74.86;100851.28;5026241;28;20200;-74
2021/03/26 02:43:16;;;;;;;33.00;25.80;;;;;;;9.24;75.06;100847.81;5023931;28;20279;-73
2021/03/26 02:45:47;;;;;;;28.07;25.07;;;;;;;9.22;74.69;100852.19;5026450;28;20229;-74
2021/03/26 02:48:20;;;;;;;32.07;27.00;;;;;;;9.22;75.05;100856.53;5025550;28;20228;-72
2021/03/26 02:50:52;;;;;;;32.50;27.47;;;;;;;9.21;74.58;100855.63;5026135;28;20214;-75
2021/03/26 02:53:24;;;;;;;33.40;26.20;;;;;;;9.14;75.51;100852.22;5024187;28;20222;-74
2021/03/26 02:55:57;;;;;;;37.70;25.23;;;;;;;9.15;75.48;100858.28;5025138;28;20629;-74
2021/03/26 02:58:27;;;;;;;27.37;24.57;;;;;;;9.14;75.50;100856.56;5025752;28;20208;-72
2021/03/26 03:01:00;;;;;;;27.37;24.43;;;;;;;9.12;75.33;100853.97;5025307;28;20640;-73
2021/03/26 03:03:28;;;;;;;27.73;24.57;;;;;;;9.14;74.86;100852.22;5024973;28;20237;-74
2021/03/26 03:05:57;;;;;;;27.17;24.60;;;;;;;9.11;75.67;100851.38;5025254;28;20202;-74
2021/03/26 03:08:27;;;;;;;27.70;24.40;;;;;;;9.11;74.68;100852.22;5025517;28;20690;-76
2021/03/26 03:10:58;;;;;;;27.90;24.60;;;;;;;9.08;74.84;100851.41;5026138;28;20202;-73
2021/03/26 03:13:31;;;;;;;29.17;24.13;;;;;;;9.06;74.55;100848.81;5023819;28;20231;-74
2021/03/26 03:16:03;;;;;;;25.50;22.87;;;;;;;9.10;74.54;100860.06;5024432;28;20571;-74
2021/03/26 03:18:31;;;;;;;28.43;25.20;;;;;;;9.01;75.07;100852.31;5024871;28;20214;-73
2021/03/26 03:21:03;;;;;;;26.83;24.10;;;;;;;9.06;74.69;100847.94;5025622;28;20221;-72
2021/03/26 03:23:36;;;;;;;25.83;23.23;;;;;;;9.05;75.11;100846.19;5024113;28;20234;-75
2021/03/26 03:26:12;;;;;;;29.47;25.17;;;;;;;9.09;75.12;100848.78;5025373;28;20692;-75
2021/03/26 03:28:46;;;;;;;27.47;24.43;;;;;;;9.01;75.36;100849.69;5025201;28;20202;-73
2021/03/26 03:31:25;;;;;;;26.20;23.50;;;;;;;9.03;75.76;100853.16;5024767;28;20270;-74
2021/03/26 03:34:00;;;;;;;29.27;25.00;;;;;;;9.04;75.26;100850.56;5024281;28;20259;-74
2021/03/26 03:36:37;;;;;;;27.33;24.47;;;;;;;9.05;75.73;100843.59;5024802;28;20206;-74
2021/03/26 03:39:11;;;;;;;30.13;24.67;;;;;;;9.03;74.88;100851.41;5025033;28;20202;-72
2021/03/26 03:41:44;;;;;;;28.80;24.23;;;;;;;9.03;75.32;100855.75;5024926;28;20206;-74
2021/03/26 03:44:18;;;;;;;29.70;26.50;;;;;;;9.05;74.99;100852.25;5023425;28;20295;-73
2021/03/26 03:46:51;;;;;;;33.83;25.57;;;;;;;8.98;75.17;100847.09;5025430;28;20213;-74
2021/03/26 03:49:26;;;;;;;26.73;24.07;;;;;;;8.94;74.93;100841.06;5023424;28;20206;-75
2021/03/26 03:51:57;;;;;;;27.33;24.37;;;;;;;8.93;75.09;100842.78;5025089;28;20247;-74
2021/03/26 03:54:31;;;;;;;28.30;24.17;;;;;;;8.90;74.93;100837.63;5023162;28;20321;-74
2021/03/26 03:57:02;;;;;;;28.37;23.87;;;;;;;8.87;74.94;100836.75;5024469;28;20225;-74
2021/03/26 03:59:36;;;;;;;28.10;24.73;;;;;;;8.86;75.21;100842.81;5023480;28;20218;-74
2021/03/26 04:02:05;;;;;;;27.87;24.57;;;;;;;8.85;74.92;100834.16;5024515;28;20205;-75
2021/03/26 04:04:36;;;;;;;27.40;24.50;;;;;;;8.87;75.27;100839.38;5023340;28;20241;-73
2021/03/26 04:07:07;;;;;;;28.17;25.20;;;;;;;8.79;75.08;100841.16;5025062;28;20218;-75
2021/03/26 04:09:37;;;;;;;28.37;25.37;;;;;;;8.72;75.20;100846.38;5023806;28;20236;-74
2021/03/26 04:12:08;;;;;;;30.67;25.53;;;;;;;8.66;75.54;100846.41;5024246;28;20254;-74
2021/03/26 04:14:40;;;;;;;28.30;25.13;;;;;;;8.68;75.37;100847.28;5022922;28;20226;-72
2021/03/26 04:17:13;;;;;;;31.50;25.70;;;;;;;8.69;75.71;100842.94;5023825;28;20685;-74
2021/03/26 04:19:44;;;;;;;31.30;26.20;;;;;;;8.69;75.31;100840.31;5024109;28;20206;-75
2021/03/26 04:22:22;;;;;;;28.90;24.73;;;;;;;8.60;75.54;100838.63;5025178;28;20202;-76
2021/03/26 04:24:53;;;;;;;32.63;25.27;;;;;;;8.57;75.34;100833.44;5028322;28;20237;-73
2021/03/26 04:27:26;;;;;;;37.90;26.87;;;;;;;8.51;76.26;100842.13;5032624;28;20210;-75
2021/03/26 04:29:57;;;;;;;32.97;26.53;;;;;;;8.48;75.87;100836.06;5029811;28;20252;-73
2021/03/26 04:32:25;;;;;;;33.63;26.87;;;;;;;8.41;76.00;100829.16;5029429;28;20202;-75
2021/03/26 04:34:53;;;;;;;35.27;25.70;;;;;;;8.41;76.34;100829.16;5023299;28;20226;-73
2021/03/26 04:37:26;;;;;;;29.83;26.47;;;;;;;8.38;76.00;100829.13;5023593;28;20268;-72
2021/03/26 04:39:56;;;;;;;30.43;26.67;;;;;;;8.33;76.18;100832.63;5023165;28;20202;-74
2021/03/26 04:42:29;;;;;;;37.83;27.27;;;;;;;8.34;76.38;100838.69;5023477;28;20224;-75
2021/03/26 04:45:09;;;;;;;29.43;25.63;;;;;;;8.30;76.84;100832.63;5023799;28;20202;-74
2021/03/26 04:47:42;;;;;;;31.57;26.17;;;;;;;8.36;76.92;100836.94;5023451;28;20280;-76
2021/03/26 04:50:17;;;;;;;30.60;26.80;;;;;;;8.41;76.82;100830.03;5024105;28;20601;-76
2021/03/26 04:52:47;;;;;;;35.60;26.90;;;;;;;8.44;76.80;100831.75;5022678;28;20212;-74
2021/03/26 04:55:19;;;;;;;31.20;26.73;;;;;;;8.45;76.95;100825.69;5024029;28;20198;-74
2021/03/26 04:57:51;;;;;;;32.80;27.60;;;;;;;8.41;76.98;100824.84;5023131;28;20261;-74
2021/03/26 05:00:20;;;;;;;31.20;26.37;;;;;;;8.41;77.40;100822.22;5021833;28;20230;-74
2021/03/26 05:02:50;;;;;;;35.10;27.73;;;;;;;8.46;76.82;100819.59;5022450;28;20629;-73
2021/03/26 05:05:19;;;;;;;33.10;26.73;;;;;;;8.46;76.60;100824.81;5023117;28;20237;-74
2021/03/26 05:07:48;;;;;;;37.83;28.97;;;;;;;8.46;76.94;100819.59;5022712;28;20206;-73
2021/03/26 05:10:19;;;;;;;36.87;28.40;;;;;;;8.48;76.73;100820.47;5022919;28;20202;-72
2021/03/26 05:12:49;;;;;;;36.27;27.97;;;;;;;8.47;77.24;100817.00;5022122;28;20220;-74
2021/03/26 05:15:21;;;;;;;50.23;29.20;;;;;;;8.50;76.49;100817.00;5024063;28;20205;-75
2021/03/26 05:17:50;;;;;;;38.07;27.07;;;;;;;8.53;77.09;100816.97;5022588;28;20292;-74
2021/03/26 05:20:24;;;;;;;35.80;26.30;;;;;;;8.54;77.14;100821.31;5022921;28;20214;-74
2021/03/26 05:22:57;;;;;;;40.17;27.27;;;;;;;8.55;76.35;100811.75;5022201;28;20307;-74
2021/03/26 05:25:28;;;;;;;37.97;28.07;;;;;;;8.52;76.69;100812.66;5023281;28;20206;-75
2021/03/26 05:27:57;;;;;;;33.30;27.77;;;;;;;8.52;76.56;100809.16;5022456;28;20601;-74
2021/03/26 05:30:26;;;;;;;34.13;26.77;;;;;;;8.48;76.46;100816.16;5023429;28;20210;-74
2021/03/26 05:32:58;;;;;;;33.90;28.03;;;;;;;8.48;76.72;100815.25;5022112;28;20268;-74
2021/03/26 05:35:26;;;;;;;34.60;27.33;;;;;;;8.49;77.09;100817.84;5023411;28;20206;-74
2021/03/26 05:38:00;;;;;;;37.93;28.50;;;;;;;8.56;76.73;100810.88;5022518;28;20798;-75
2021/03/26 05:41:18;;;;;;;39.60;28.73;;;;;;;8.58;76.80;100819.53;5022702;28;20225;-72
2021/03/26 05:44:01;;;;;;;37.07;27.60;;;;;;;8.64;76.97;100816.94;4960468;28;20275;-72
2021/03/26 05:46:37;;;;;;;37.87;28.87;;;;;;;8.65;76.83;100821.25;5023670;28;20217;-74
2021/03/26 05:49:11;;;;;;;35.73;29.73;;;;;;;8.64;76.86;100824.75;5021907;28;20205;-75
2021/03/26 05:51:51;;;;;;;34.67;27.57;;;;;;;8.66;76.71;100814.31;5023234;28;20585;-74
2021/03/26 05:54:32;;;;;;;36.13;27.50;;;;;;;8.67;77.17;100816.03;5021593;28;20233;-74
2021/03/26 05:57:09;;;;;;;33.90;27.20;;;;;;;8.65;76.44;100818.66;5023351;28;20225;-74
2021/03/26 05:59:48;;;;;;;37.90;29.47;;;;;;;8.60;76.87;100811.72;5021272;28;20305;-74
2021/03/26 06:02:46;;;;;;;38.27;28.53;;;;;;;8.60;76.74;100814.34;5023629;28;20224;-73
2021/03/26 06:05:57;;;;;;;33.87;27.67;;;;;;;8.59;77.06;100823.03;5023072;28;20814;-75
2021/03/26 06:08:44;;;;;;;36.87;27.80;;;;;;;8.56;76.79;100818.69;5022314;28;20221;-75
2021/03/26 06:11:30;;;;;;;40.13;29.43;;;;;;;8.48;76.66;100821.34;5022058;28;20201;-72
2021/03/26 06:14:33;;;;;;;37.13;28.87;;;;;;;8.48;76.52;100823.06;5024744;28;20222;-75
2021/03/26 06:17:24;;;;;;;43.97;31.00;;;;;;;8.43;77.43;100822.22;5025370;28;20201;-74
2021/03/26 06:20:25;;;;;;;39.57;29.67;;;;;;;8.47;77.02;100831.75;5026093;28;20207;-74
2021/03/26 06:23:31;;;;;;;40.67;31.73;;;;;;;8.46;77.43;100825.69;5023898;28;20242;-73
2021/03/26 06:26:25;;;;;;;41.83;29.27;;;;;;;8.51;77.48;100829.13;5025732;28;20202;-72
2021/03/26 06:28:58;;;;;;;42.47;30.17;;;;;;;8.46;77.58;100827.41;5023605;28;20210;-74
2021/03/26 06:31:59;;;;;;;42.70;30.60;;;;;;;8.50;77.25;100826.53;5025213;28;20823;-72
2021/03/26 06:34:59;;;;;;;44.70;31.73;;;;;;;8.58;77.63;100829.09;5023962;28;20228;-74
2021/03/26 06:37:39;;;;;;;42.43;30.57;;;;;;;8.64;77.75;100831.66;5021662;28;20210;-73
2021/03/26 06:40:20;;;;;;;40.53;30.80;;;;;;;8.63;77.22;100822.16;5024518;28;20203;-75
2021/03/26 06:42:55;;;;;;;38.67;30.20;;;;;;;8.66;77.22;100833.41;5023555;28;20231;-74
2021/03/26 06:45:49;;;;;;;44.23;30.80;;;;;;;8.73;76.38;100831.63;5024240;28;20199;-74
2021/03/26 06:48:25;;;;;;;45.30;30.97;;;;;;;8.69;77.59;100825.56;5022561;28;20629;-74
2021/03/26 06:51:04;;;;;;;46.87;31.30;;;;;;;8.73;77.98;100829.88;5025469;28;20202;-74
2021/03/26 06:53:39;;;;;;;41.47;31.17;;;;;;;8.71;77.66;100823.81;5023491;28;20251;-74
2021/03/26 06:56:49;;;;;;;39.97;31.17;;;;;;;8.82;78.05;100822.91;5024528;28;20301;-74
2021/03/26 06:59:29;;;;;;;44.33;30.70;;;;;;;8.83;78.00;100822.91;5023806;28;20213;-75
2021/03/26 07:02:12;;;;;;;50.40;32.63;;;;;;;8.90;77.92;100815.91;5024269;28;20209;-74
2021/03/26 07:05:08;;;;;;;44.40;30.50;;;;;;;8.98;78.13;100821.94;5023701;28;20230;-74
2021/03/26 07:08:13;;;;;;;45.07;31.30;;;;;;;9.04;76.60;100811.50;5023835;28;20202;-72
2021/03/26 07:10:54;;;;;;;46.90;30.50;;;;;;;9.11;76.82;100813.16;5024583;28;20691;-74
2021/03/26 07:13:37;;;;;;;40.00;30.10;;;;;;;9.19;76.62;100813.13;5021206;28;20226;-72
2021/03/26 07:16:25;;;;;;;42.93;31.70;;;;;;;9.26;75.85;100800.94;5024350;28;20690;-75
2021/03/26 07:19:09;;;;;;;40.67;30.47;;;;;;;9.39;75.52;100807.75;5023031;28;20205;-74
2021/03/26 07:22:05;;;;;;;42.03;31.47;;;;;;;9.45;75.25;100804.22;5022420;28;20202;-71
2021/03/26 07:24:54;;;;;;;43.57;31.07;;;;;;;9.58;74.79;100805.00;5022543;28;20241;-71
2021/03/26 07:27:35;;;;;;;46.70;32.07;;;;;;;9.66;74.32;100814.47;5024633;28;20202;-75
2021/03/26 07:30:26;;;;;;;40.93;31.13;;;;;;;9.73;73.92;100805.72;5021472;28;20295;-73
2021/03/26 07:33:02;;;;;;;42.00;30.80;;;;;;;9.78;73.98;100805.66;5020780;28;20237;-74
2021/03/26 07:35:44;;;;;;;42.37;30.47;;;;;;;9.86;73.53;100809.06;5023962;28;20213;-71
2021/03/26 07:38:33;;;;;;;38.63;30.77;;;;;;;9.91;73.40;100809.91;5022684;28;20211;-72
2021/03/26 07:41:09;;;;;;;39.17;30.30;;;;;;;9.95;72.44;100810.72;5022336;28;20697;-74
2021/03/26 07:43:56;;;;;;;39.27;30.83;;;;;;;9.99;71.87;100809.81;5021636;28;20287;-72
2021/03/26 07:46:59;;;;;;;48.90;32.97;;;;;;;10.06;72.88;100808.84;5024336;28;20213;-71
2021/03/26 07:49:38;;;;;;;42.93;30.70;;;;;;;10.12;72.49;100806.16;4982467;28;20211;-73
2021/03/26 07:52:13;;;;;;;42.67;30.90;;;;;;;10.16;71.88;100806.16;5016928;28;20289;-74
2021/03/26 07:55:03;;;;;;;45.50;31.43;;;;;;;10.22;71.64;100806.94;5020965;28;20251;-73
2021/03/26 07:57:45;;;;;;;40.83;31.00;;;;;;;10.30;72.50;100806.88;5024425;28;20199;-72
2021/03/26 08:00:30;;;;;;;38.80;29.77;;;;;;;10.41;72.70;100798.94;5023234;28;20209;-74
2021/03/26 08:03:21;;;;;;;35.53;29.17;;;;;;;10.44;70.24;100799.75;5022229;28;20782;-75
2021/03/26 08:05:58;;;;;;;38.37;30.63;;;;;;;10.52;70.15;100802.25;5022901;28;20236;-74
2021/03/26 08:08:38;;;;;;;43.73;30.10;;;;;;;10.64;70.56;100802.09;5022301;28;20206;-74
2021/03/26 08:11:14;;;;;;;40.67;29.23;;;;;;;10.74;71.17;100797.59;5023199;28;20207;-73
2021/03/26 08:13:59;;;;;;;36.43;28.43;;;;;;;10.83;70.11;100799.25;5022763;28;21916;-72
2021/03/26 08:16:44;;;;;;;35.50;29.10;;;;;;;10.91;69.63;100789.53;5020886;28;20244;-73
2021/03/26 08:19:19;;;;;;;39.53;29.23;;;;;;;11.04;68.82;100796.31;5023371;28;20210;-73
2021/03/26 08:21:55;;;;;;;36.83;28.10;;;;;;;11.12;68.54;100791.84;5020809;28;20207;-74
2021/03/26 08:24:52;;;;;;;34.57;28.90;;;;;;;11.16;67.06;100783.94;5020518;28;20874;-73
2021/03/26 08:27:26;;;;;;;34.47;27.53;;;;;;;11.25;67.01;100795.09;5022844;28;20214;-72
2021/03/26 08:30:09;;;;;;;34.07;28.73;;;;;;;11.35;66.66;100798.44;5021777;28;20201;-74
2021/03/26 08:32:59;;;;;;;35.67;28.33;;;;;;;11.39;65.91;100797.50;5023709;28;20211;-73
2021/03/26 08:35:54;;;;;;;25.97;23.40;;;;;;;11.36;64.75;100794.94;5022553;28;20214;-74
2021/03/26 08:38:40;;;;;;;34.23;26.77;;;;;;;11.33;65.40;100793.22;5022839;28;21293;-75
2021/03/26 08:41:13;;;;;;;28.17;25.17;;;;;;;11.44;65.29;100789.59;5022899;28;20218;-72
2021/03/26 08:43:40;;;;;;;32.43;25.80;;;;;;;11.45;65.65;100792.16;5022227;28;20605;-74
2021/03/26 08:46:16;;;;;;;25.80;23.13;;;;;;;11.42;63.17;100797.47;5024245;28;20214;-73
2021/03/26 08:48:52;;;;;;;28.43;25.27;;;;;;;11.48;63.31;100797.34;5023574;28;20205;-73
2021/03/26 08:51:36;;;;;;;25.80;23.30;;;;;;;11.51;62.96;100805.13;5024030;28;20209;-74
2021/03/26 08:54:15;;;;;;;25.67;23.00;;;;;;;11.53;63.06;100798.16;5022217;28;20221;-71
2021/03/26 08:56:52;;;;;;;25.30;22.73;;;;;;;11.54;62.63;100793.78;5022737;28;20210;-72
2021/03/26 08:59:38;;;;;;;25.80;22.80;;;;;;;11.55;63.03;100797.25;5022443;28;20224;-74
2021/03/26 09:02:22;;;;;;;27.27;23.33;;;;;;;11.64;63.36;100790.09;5023828;28;20288;-74
2021/03/26 09:05:07;;;;;;;28.07;23.67;;;;;;;11.72;63.06;100796.06;5021853;28;20267;-72
2021/03/26 09:07:52;;;;;;;21.70;19.53;;;;;;;11.77;60.71;100793.34;5020117;28;20201;-73
2021/03/26 09:11:06;;;;;;;22.63;20.47;;;;;;;11.85;60.22;100791.47;5022978;28;20244;-72
2021/03/26 09:13:48;;;;;;;22.67;20.43;;;;;;;11.90;60.81;100788.81;5021969;28;20218;-74
2021/03/26 09:16:18;;;;;;;23.70;21.17;;;;;;;11.97;60.52;100786.94;5022927;28;20626;-73
2021/03/26 09:18:51;;;;;;;22.87;20.73;;;;;;;12.04;60.67;100783.31;5026367;28;20202;-74
2021/03/26 09:21:31;;;;;;;23.17;20.80;;;;;;;12.15;60.92;100777.84;5034753;28;20357;-74
2021/03/26 09:24:33;;;;;;;24.50;22.23;;;;;;;12.20;60.80;100779.47;5033290;28;20291;-73
2021/03/26 09:27:11;;;;;;;20.67;18.77;;;;;;;12.26;59.67;100778.50;5022054;28;20216;-74
2021/03/26 09:29:45;;;;;;;22.50;19.13;;;;;;;12.35;58.58;100775.72;5021198;28;20202;-73
2021/03/26 09:32:16;;;;;;;21.60;19.63;;;;;;;12.47;58.71;100774.59;4328530;28;10000798;-72
2021/03/26 09:34:49;;;;;;;20.37;18.47;;;;;;;12.57;57.41;100768.25;5018519;28;20882;-71
2021/03/26 09:37:23;;;;;;;23.13;20.53;;;;;;;12.52;58.83;100770.09;5019589;28;20207;-72
2021/03/26 09:39:53;;;;;;;21.23;19.20;;;;;;;12.61;59.88;100774.28;5018504;28;20199;-74
2021/03/26 09:42:33;;;;;;;23.30;21.17;;;;;;;12.47;59.71;100770.22;5020044;28;20214;-71
2021/03/26 09:45:08;;;;;;;21.33;19.43;;;;;;;12.53;60.96;100771.84;5018784;28;20233;-73
2021/03/26 09:47:38;;;;;;;22.03;20.03;;;;;;;12.33;60.65;100777.50;5017643;28;20205;-73
2021/03/26 09:50:24;;;;;;;20.87;19.10;;;;;;;12.35;59.09;100769.59;5019221;28;20694;-73
2021/03/26 09:52:51;;;;;;;20.50;18.40;;;;;;;12.51;60.40;100764.00;5019899;28;20297;-72
2021/03/26 09:55:21;;;;;;;19.17;17.57;;;;;;;12.57;59.18;100760.41;5021194;28;20211;-72
2021/03/26 09:57:52;;;;;;;19.87;17.83;;;;;;;12.55;58.49;100756.06;5019546;28;20230;-73
2021/03/26 10:00:28;;;;;;;20.23;18.40;;;;;;;12.59;59.73;100757.75;5019518;28;20211;-73
2021/03/26 10:03:03;;;;;;;20.47;18.47;;;;;;;12.57;60.44;100756.94;5018886;28;20782;-73
2021/03/26 10:05:39;;;;;;;20.77;19.00;;;;;;;12.71;60.89;100753.09;5020418;28;20575;-74
2021/03/26 10:08:35;;;;;;;21.20;19.07;;;;;;;12.86;60.99;100741.41;5019395;28;20200;-73
2021/03/26 10:11:07;;;;;;;22.47;20.13;;;;;;;13.02;59.17;100747.13;5020363;28;20198;-71
2021/03/26 10:13:43;;;;;;;21.60;19.70;;;;;;;13.01;56.83;100734.91;5019176;28;20232;-73
2021/03/26 10:16:10;;;;;;;19.83;18.10;;;;;;;13.14;58.34;100743.38;5020453;28;20207;-71
2021/03/26 10:18:42;;;;;;;21.50;19.50;;;;;;;13.15;58.20;100742.44;5020078;28;20206;-74
2021/03/26 10:21:12;;;;;;;21.13;19.13;;;;;;;13.21;59.14;100734.44;5020031;28;20221;-73
2021/03/26 10:23:51;;;;;;;22.37;20.37;;;;;;;13.37;58.91;100734.06;5018567;28;20250;-74
2021/03/26 10:26:25;;;;;;;21.73;19.83;;;;;;;13.40;57.93;100731.34;5020345;28;20716;-72
2021/03/26 10:29:19;;;;;;;22.43;20.27;;;;;;;13.34;56.65;100721.91;5019678;28;20269;-74
2021/03/26 10:31:48;;;;;;;20.43;18.73;;;;;;;13.26;56.76;100721.19;5020475;28;20210;-72
2021/03/26 10:34:17;;;;;;;21.00;19.17;;;;;;;13.41;56.23;100722.59;5019348;28;20647;-73
2021/03/26 10:36:50;;;;;;;20.03;18.27;;;;;;;13.57;56.28;100720.44;5020320;28;20204;-72
2021/03/26 10:39:23;;;;;;;21.73;19.27;;;;;;;13.70;54.39;100708.72;5019496;28;20677;-74
2021/03/26 10:42:07;;;;;;;20.13;18.07;;;;;;;13.66;53.49;100709.72;5020252;28;20735;-76
2021/03/26 10:44:38;;;;;;;18.47;16.73;;;;;;;13.49;52.54;100700.50;5018904;28;20238;-72
2021/03/26 10:47:14;;;;;;;18.90;17.03;;;;;;;13.46;51.83;100712.88;5020195;28;20219;-73
2021/03/26 10:49:45;;;;;;;18.57;16.77;;;;;;;13.29;52.56;100701.03;5020320;28;20208;-71
2021/03/26 10:52:16;;;;;;;19.50;17.60;;;;;;;13.22;52.57;100699.47;5019236;28;20215;-73
2021/03/26 10:54:49;;;;;;;19.70;18.10;;;;;;;13.19;54.03;100696.91;5018431;28;20219;-75
2021/03/26 10:57:36;;;;;;;19.20;17.50;;;;;;;13.27;52.77;100688.84;5018993;28;20216;-73
2021/03/26 11:00:08;;;;;;;20.33;18.53;;;;;;;13.43;52.97;100676.22;5021528;28;20558;-71
2021/03/26 11:02:54;;;;;;;18.73;17.03;;;;;;;13.72;53.42;100671.97;5021300;28;20241;-73
2021/03/26 11:05:27;;;;;;;18.23;16.73;;;;;;;13.88;51.66;100668.84;5022645;28;20226;-73
2021/03/26 11:08:16;;;;;;;17.70;16.23;;;;;;;14.11;51.65;100659.41;5022421;28;20207;-72
2021/03/26 11:10:46;;;;;;;14.63;13.20;;;;;;;14.19;48.47;100661.81;5022610;28;20704;-71
2021/03/26 11:13:21;;;;;;;14.57;13.47;;;;;;;14.41;47.55;100644.50;5021123;28;20223;-72
2021/03/26 11:15:51;;;;;;;13.70;12.43;;;;;;;14.33;44.58;100651.75;5022375;28;20254;-74
2021/03/26 11:18:20;;;;;;;12.87;11.90;;;;;;;14.45;45.53;100646.13;5020045;28;20701;-73
2021/03/26 11:20:50;;;;;;;13.63;12.53;;;;;;;14.87;47.79;100634.28;5023829;28;20212;-75
2021/03/26 11:23:23;;;;;;;13.50;12.20;;;;;;;15.33;47.04;100643.22;5021846;28;20241;-73
2021/03/26 11:25:53;;;;;;;12.13;11.23;;;;;;;15.53;42.88;100636.38;5022637;28;20223;-73
2021/03/26 11:28:28;;;;;;;11.10;10.20;;;;;;;15.32;43.52;100628.38;5020513;28;20212;-72
2021/03/26 11:31:21;;;;;;;11.03;10.03;;;;;;;14.75;43.08;100635.56;5022217;28;20204;-75
2021/03/26 11:34:12;;;;;;;11.63;10.63;;;;;;;14.43;45.03;100628.66;5018377;28;20339;-72
2021/03/26 11:36:58;;;;;;;11.57;10.57;;;;;;;14.85;43.97;100623.81;5021040;28;20231;-73
2021/03/26 11:39:37;;;;;;;11.60;10.70;;;;;;;15.03;42.68;100616.22;5020654;28;20273;-74
2021/03/26 11:42:42;;;;;;;11.77;10.77;;;;;;;15.06;42.71;100627.50;5021066;28;20314;-73
2021/03/26 11:45:26;;;;;;;11.20;10.37;;;;;;;15.08;44.97;100611.66;5018602;28;20836;-73
2021/03/26 11:48:00;;;;;;;11.20;10.30;;;;;;;15.94;43.39;100608.56;5020546;28;20219;-72
2021/03/26 11:50:30;;;;;;;11.13;10.13;;;;;;;17.60;38.85;100609.56;5021686;28;20218;-73
2021/03/26 11:53:16;;;;;;;10.33;9.43;;;;;;;18.52;37.05;100595.56;5020305;28;20246;-73